Time;durP1;ratioP1;P1;durP2;ratioP2;P2;SDS_P1;SDS_P2;PMS_P1;PMS_P2;Temp;Humidity;BMP_temperature;BMP_pressure;BME280_temperature;BME280_humidity;BME280_pressure;Samples;Min_cycle;Max_cycle;Signal;HPM_P1;HPM_P2
2022/08/07 00:00:40;;;;;;;0.20;0.20;;;14.50;99.90;;;;;;5059786;28;20044;-80
2022/08/07 00:03:07;;;;;;;0.17;0.17;;;14.50;99.90;;;;;;5054790;28;20095;-80
2022/08/07 00:05:33;;;;;;;0.17;0.17;;;14.40;99.90;;;;;;5053406;28;20049;-80
2022/08/07 00:07:59;;;;;;;0.20;0.20;;;14.40;99.90;;;;;;5062892;28;20089;-80
2022/08/07 00:10:25;;;;;;;0.20;0.20;;;14.40;99.90;;;;;;5069329;28;20548;-80
2022/08/07 00:12:50;;;;;;;0.20;0.20;;;14.40;99.90;;;;;;5053863;28;20048;-80
2022/08/07 00:15:16;;;;;;;0.20;0.20;;;14.40;99.90;;;;;;5068772;28;20087;-81
2022/08/07 00:17:41;;;;;;;0.10;0.10;;;14.40;99.90;;;;;;5071532;28;20678;-80
2022/08/07 00:20:07;;;;;;;0.10;0.10;;;14.40;99.90;;;;;;5080372;28;20043;-81
2022/08/07 00:22:33;;;;;;;0.20;0.20;;;14.40;99.90;;;;;;5085523;28;20590;-81
2022/08/07 00:24:59;;;;;;;0.20;0.20;;;14.40;99.90;;;;;;5068785;28;20074;-81
2022/08/07 00:27:24;;;;;;;0.10;0.10;;;14.30;99.90;;;;;;5073645;28;20397;-80
2022/08/07 00:29:50;;;;;;;0.20;0.20;;;14.40;99.90;;;;;;5058544;28;20147;-81
2022/08/07 00:32:16;;;;;;;0.10;0.10;;;14.20;99.90;;;;;;5066331;28;20045;-81
2022/08/07 00:34:42;;;;;;;0.20;0.20;;;14.20;99.90;;;;;;5071136;28;20120;-80
2022/08/07 00:37:07;;;;;;;0.10;0.10;;;14.20;99.90;;;;;;5071687;28;20150;-80
2022/08/07 00:39:34;;;;;;;0.10;0.10;;;14.20;99.90;;;;;;5078181;28;20130;-80
2022/08/07 00:42:00;;;;;;;0.10;0.10;;;14.20;99.90;;;;;;5064089;28;20056;-81
2022/08/07 00:44:26;;;;;;;0.10;0.10;;;14.10;99.90;;;;;;5063946;28;20373;-80
2022/08/07 00:46:52;;;;;;;0.20;0.20;;;14.20;99.90;;;;;;5064375;28;20124;-80
2022/08/07 00:49:18;;;;;;;0.10;0.10;;;14.10;99.90;;;;;;5067144;28;20155;-80
2022/08/07 00:51:44;;;;;;;0.20;0.20;;;14.20;99.90;;;;;;5072132;28;20119;-80
2022/08/07 00:54:10;;;;;;;0.17;0.17;;;14.10;99.90;;;;;;5081870;28;20048;-80
2022/08/07 00:56:39;;;;;;;0.10;0.10;;;14.10;99.90;;;;;;5071997;28;20485;-81
2022/08/07 00:59:05;;;;;;;0.20;0.20;;;14.10;99.90;;;;;;5070278;28;20036;-80
2022/08/07 01:01:31;;;;;;;0.20;0.20;;;14.10;99.90;;;;;;5071998;28;20098;-80
2022/08/07 01:03:57;;;;;;;0.20;0.20;;;14.30;99.90;;;;;;5071807;28;20048;-80
2022/08/07 01:06:23;;;;;;;0.20;0.20;;;14.10;99.90;;;;;;5086601;28;20059;-80
2022/08/07 01:08:48;;;;;;;0.20;0.20;;;14.00;99.90;;;;;;5080024;28;20520;-80
2022/08/07 01:11:15;;;;;;;0.20;0.20;;;13.90;99.90;;;;;;5064088;28;20071;-81
2022/08/07 01:13:41;;;;;;;0.20;0.20;;;13.90;99.90;;;;;;5067993;28;20040;-80
2022/08/07 01:16:08;;;;;;;0.13;0.13;;;14.00;99.90;;;;;;5057309;28;20075;-79
2022/08/07 01:18:35;;;;;;;0.20;0.20;;;13.90;99.90;;;;;;5067125;28;20044;-79
2022/08/07 01:21:23;;;;;;;0.20;0.20;;;13.90;99.90;;;;;;5074429;28;20077;-79
2022/08/07 01:23:50;;;;;;;0.20;0.20;;;13.90;99.90;;;;;;5078461;28;20071;-79
2022/08/07 01:26:21;;;;;;;0.17;0.17;;;13.90;99.90;;;;;;5063150;28;20045;-79
2022/08/07 01:28:49;;;;;;;0.20;0.20;;;13.90;99.90;;;;;;5078151;28;20734;-79
2022/08/07 01:31:16;;;;;;;0.20;0.20;;;13.90;99.90;;;;;;5060472;28;20368;-79
2022/08/07 01:33:42;;;;;;;0.20;0.20;;;13.90;99.90;;;;;;5066412;28;20098;-80
2022/08/07 01:36:10;;;;;;;0.20;0.20;;;13.90;99.90;;;;;;5078628;28;20809;-80
2022/08/07 01:38:38;;;;;;;0.20;0.20;;;13.90;99.90;;;;;;5070559;28;20049;-79
2022/08/07 01:41:05;;;;;;;0.20;0.20;;;13.90;99.90;;;;;;5056101;28;20097;-79
2022/08/07 01:43:32;;;;;;;0.20;0.20;;;13.90;99.90;;;;;;5055078;28;20051;-80
2022/08/07 01:45:58;;;;;;;0.20;0.20;;;13.80;99.90;;;;;;5069459;28;20131;-80
2022/08/07 01:48:25;;;;;;;0.20;0.20;;;13.80;99.90;;;;;;5078176;28;20040;-80
2022/08/07 01:51:19;;;;;;;0.20;0.20;;;13.80;99.90;;;;;;5066516;28;20122;-79
2022/08/07 01:53:49;;;;;;;0.20;0.20;;;13.80;99.90;;;;;;5056527;28;20045;-79
2022/08/07 01:56:21;;;;;;;0.10;0.10;;;13.80;99.90;;;;;;5056669;28;20057;-79
2022/08/07 01:58:56;;;;;;;0.17;0.17;;;13.70;99.90;;;;;;5071570;28;20037;-79
2022/08/07 02:01:32;;;;;;;0.20;0.20;;;13.70;99.90;;;;;;5060377;28;20068;-79
2022/08/07 02:04:06;;;;;;;0.10;0.10;;;13.70;99.90;;;;;;5066527;28;20090;-80
2022/08/07 02:06:35;;;;;;;0.15;0.15;;;13.70;99.90;;;;;;5067934;28;20615;-80
2022/08/07 02:09:04;;;;;;;0.20;0.20;;;13.60;99.90;;;;;;5064069;28;20123;-81
2022/08/07 02:11:35;;;;;;;0.20;0.20;;;13.60;99.90;;;;;;5068634;28;20349;-80
2022/08/07 02:14:02;;;;;;;0.20;0.20;;;13.50;99.90;;;;;;5070126;28;20041;-80
2022/08/07 02:16:29;;;;;;;0.20;0.20;;;13.40;99.90;;;;;;5081044;28;20048;-80
2022/08/07 02:18:55;;;;;;;0.20;0.20;;;13.30;99.90;;;;;;5070742;28;20079;-80
2022/08/07 02:21:22;;;;;;;0.10;0.10;;;13.30;99.90;;;;;;5068509;28;20080;-80
2022/08/07 02:23:48;;;;;;;0.10;0.10;;;13.20;99.90;;;;;;5070422;28;20043;-80
2022/08/07 02:26:16;;;;;;;0.20;0.20;;;13.20;99.90;;;;;;5070839;28;20048;-79
2022/08/07 02:28:42;;;;;;;0.20;0.20;;;13.10;99.90;;;;;;5067613;28;20502;-80
2022/08/07 02:31:10;;;;;;;0.20;0.20;;;13.00;99.90;;;;;;5067295;28;20041;-80
2022/08/07 02:33:37;;;;;;;0.20;0.20;;;12.90;99.90;;;;;;5068006;28;20462;-80
2022/08/07 02:36:04;;;;;;;0.10;0.10;;;12.90;99.90;;;;;;5077010;28;20400;-79
2022/08/07 02:38:35;;;;;;;0.20;0.20;;;12.80;99.90;;;;;;5083551;28;20040;-81
2022/08/07 02:41:02;;;;;;;0.20;0.20;;;12.80;99.90;;;;;;5060937;28;20037;-81
2022/08/07 02:43:29;;;;;;;0.10;0.10;;;12.80;99.90;;;;;;5073464;28;20397;-80
2022/08/07 02:46:00;;;;;;;0.15;0.15;;;12.80;99.90;;;;;;5074938;28;20040;-80
2022/08/07 02:48:26;;;;;;;0.20;0.20;;;12.80;99.90;;;;;;5064777;28;20059;-81
2022/08/07 02:50:53;;;;;;;0.20;0.20;;;12.80;99.90;;;;;;5072381;28;20111;-80
2022/08/07 02:53:27;;;;;;;0.20;0.20;;;12.90;99.90;;;;;;5065242;28;20052;-80
2022/08/07 02:55:55;;;;;;;0.20;0.20;;;13.20;99.90;;;;;;5064263;28;20040;-80
2022/08/07 02:58:22;;;;;;;0.10;0.10;;;12.90;99.90;;;;;;5066889;28;20062;-80
2022/08/07 03:00:53;;;;;;;0.10;0.10;;;13.00;99.90;;;;;;5060695;28;20049;-80
2022/08/07 03:03:21;;;;;;;0.20;0.20;;;13.00;99.90;;;;;;5079765;28;20071;-80
2022/08/07 03:05:51;;;;;;;0.20;0.20;;;13.10;99.90;;;;;;5069532;28;20049;-80
2022/08/07 03:08:17;;;;;;;0.20;0.20;;;13.10;99.90;;;;;;5068090;28;20052;-80
2022/08/07 03:10:45;;;;;;;0.20;0.20;;;13.10;99.90;;;;;;5075232;28;20112;-80
2022/08/07 03:13:12;;;;;;;0.20;0.20;;;13.10;99.90;;;;;;5054914;28;20111;-80
2022/08/07 03:15:38;;;;;;;0.20;0.20;;;13.20;99.90;;;;;;5073556;28;20044;-81
2022/08/07 03:18:04;;;;;;;0.20;0.20;;;13.20;99.90;;;;;;5070266;28;20049;-81
2022/08/07 03:20:30;;;;;;;0.10;0.10;;;13.20;99.90;;;;;;5085326;28;20051;-81
2022/08/07 03:22:56;;;;;;;0.20;0.20;;;13.20;99.90;;;;;;5071058;28;20124;-80
2022/08/07 03:25:24;;;;;;;0.20;0.20;;;13.30;99.90;;;;;;5074707;28;20404;-81
2022/08/07 03:27:50;;;;;;;0.17;0.17;;;13.30;99.90;;;;;;5078820;28;20047;-81
2022/08/07 03:30:16;;;;;;;0.13;0.13;;;13.20;99.90;;;;;;5075048;28;20454;-81
2022/08/07 03:32:46;;;;;;;0.20;0.20;;;13.20;99.90;;;;;;5072629;28;20032;-81
2022/08/07 03:35:16;;;;;;;0.10;0.10;;;13.20;99.90;;;;;;5081927;28;20040;-80
2022/08/07 03:37:44;;;;;;;0.10;0.10;;;13.30;99.90;;;;;;5073037;28;20028;-80
2022/08/07 03:40:10;;;;;;;0.20;0.20;;;13.30;99.90;;;;;;5075826;28;20052;-80
2022/08/07 03:42:36;;;;;;;0.20;0.20;;;13.20;99.90;;;;;;5069768;28;20063;-80
2022/08/07 03:45:04;;;;;;;0.10;0.10;;;13.20;99.90;;;;;;5076641;28;20492;-80
2022/08/07 03:47:30;;;;;;;0.20;0.20;;;13.20;99.90;;;;;;5093280;28;20052;-80
2022/08/07 03:49:57;;;;;;;0.20;0.20;;;13.30;99.90;;;;;;5069828;28;20048;-80
2022/08/07 03:52:26;;;;;;;0.20;0.20;;;13.30;99.90;;;;;;5065677;28;20079;-80
2022/08/07 03:55:01;;;;;;;0.13;0.13;;;13.30;99.90;;;;;;5064320;28;20202;-80
2022/08/07 03:57:30;;;;;;;0.20;0.20;;;13.20;99.90;;;;;;5074490;28;20101;-80
2022/08/07 03:59:56;;;;;;;0.10;0.10;;;13.30;99.90;;;;;;5062032;28;20044;-80
2022/08/07 04:02:23;;;;;;;0.20;0.20;;;13.30;99.90;;;;;;5070894;28;20048;-80
2022/08/07 04:04:49;;;;;;;0.10;0.10;;;13.30;99.90;;;;;;5086096;28;20098;-80
2022/08/07 04:07:16;;;;;;;0.20;0.20;;;13.20;99.90;;;;;;5067231;28;20131;-80
2022/08/07 04:09:46;;;;;;;0.17;0.17;;;13.40;99.90;;;;;;5068646;28;20066;-81
2022/08/07 04:12:15;;;;;;;0.10;0.10;;;13.30;99.90;;;;;;5073419;28;20481;-80
2022/08/07 04:14:42;;;;;;;0.20;0.20;;;13.30;99.90;;;;;;5070447;28;20425;-81
2022/08/07 04:17:08;;;;;;;0.10;0.10;;;13.30;99.90;;;;;;5066825;28;20036;-80
2022/08/07 04:19:34;;;;;;;0.20;0.20;;;13.30;99.90;;;;;;5068773;28;20166;-81
2022/08/07 04:22:01;;;;;;;0.20;0.20;;;13.50;99.90;;;;;;5063130;28;20044;-80
2022/08/07 04:24:28;;;;;;;0.20;0.20;;;13.40;99.90;;;;;;5065086;28;20064;-81
2022/08/07 04:26:53;;;;;;;0.20;0.20;;;13.30;99.90;;;;;;5064907;28;20182;-80
2022/08/07 04:29:19;;;;;;;0.10;0.10;;;13.40;99.90;;;;;;5081016;28;20762;-80
2022/08/07 04:31:45;;;;;;;0.10;0.10;;;13.40;99.90;;;;;;5075931;28;20040;-81
2022/08/07 04:34:11;;;;;;;0.10;0.10;;;13.40;99.90;;;;;;5081830;28;20044;-80
2022/08/07 04:36:41;;;;;;;0.15;0.15;;;14.00;99.90;;;;;;5066785;28;20491;-80
2022/08/07 04:39:08;;;;;;;0.10;0.10;;;13.40;99.90;;;;;;5086105;28;20040;-80
2022/08/07 04:41:33;;;;;;;0.15;0.15;;;13.50;99.90;;;;;;5068951;28;21875;-81
2022/08/07 04:44:00;;;;;;;0.15;0.15;;;13.40;99.90;;;;;;5081475;28;20040;-81
2022/08/07 04:46:43;;;;;;;0.20;0.20;;;13.50;99.90;;;;;;5076767;28;20071;-81
2022/08/07 04:49:37;;;;;;;0.20;0.20;;;13.50;99.90;;;;;;5072950;28;20045;-79
2022/08/07 04:52:24;;;;;;;0.17;0.17;;;13.50;99.90;;;;;;5055495;28;20107;-79
2022/08/07 04:54:58;;;;;;;0.20;0.20;;;13.60;99.90;;;;;;5063891;28;20045;-80
2022/08/07 04:57:44;;;;;;;0.20;0.20;;;13.60;99.90;;;;;;5062996;28;20045;-80
2022/08/07 05:00:14;;;;;;;0.20;0.20;;;13.60;99.90;;;;;;5068230;28;20083;-79
2022/08/07 05:02:45;;;;;;;0.20;0.20;;;13.60;99.90;;;;;;5079970;28;20548;-80
2022/08/07 05:05:29;;;;;;;0.20;0.20;;;13.60;99.90;;;;;;5070417;28;20045;-80
2022/08/07 05:08:00;;;;;;;0.20;0.20;;;13.60;99.90;;;;;;5061094;28;20488;-80
2022/08/07 05:10:39;;;;;;;0.10;0.10;;;13.60;99.90;;;;;;5068008;28;20051;-80
2022/08/07 05:13:15;;;;;;;0.20;0.20;;;13.70;99.90;;;;;;5064775;28;20040;-80
2022/08/07 05:15:44;;;;;;;0.13;0.13;;;13.70;99.90;;;;;;5070515;28;20127;-80
2022/08/07 05:18:19;;;;;;;0.20;0.20;;;13.80;99.90;;;;;;5067254;28;20078;-80
2022/08/07 05:20:59;;;;;;;0.20;0.20;;;13.80;99.90;;;;;;5071669;28;20040;-80
2022/08/07 05:23:40;;;;;;;0.10;0.10;;;13.80;99.90;;;;;;5080533;28;20044;-80
2022/08/07 05:26:11;;;;;;;0.20;0.20;;;13.90;99.90;;;;;;5065193;28;20064;-80
2022/08/07 05:28:38;;;;;;;0.20;0.20;;;13.90;99.90;;;;;;5063948;28;20103;-81
2022/08/07 05:31:05;;;;;;;0.20;0.20;;;14.00;99.90;;;;;;5070528;28;20048;-79
2022/08/07 05:33:33;;;;;;;0.10;0.10;;;14.00;99.90;;;;;;5076900;28;20047;-81
2022/08/07 05:36:00;;;;;;;0.17;0.17;;;14.00;99.90;;;;;;5064001;28;20052;-80
2022/08/07 05:38:27;;;;;;;0.20;0.20;;;14.10;99.90;;;;;;5070729;28;20067;-80
2022/08/07 05:40:54;;;;;;;0.10;0.10;;;14.20;99.90;;;;;;5070382;28;20497;-80
2022/08/07 05:43:23;;;;;;;0.10;0.10;;;14.20;99.90;;;;;;5076029;28;20040;-80
2022/08/07 05:45:50;;;;;;;0.10;0.10;;;14.50;99.90;;;;;;5063339;28;20569;-80
2022/08/07 05:48:17;;;;;;;0.20;0.20;;;14.40;99.90;;;;;;5075812;28;20054;-80
2022/08/07 05:50:43;;;;;;;0.10;0.10;;;14.40;99.90;;;;;;5064642;28;20048;-79
2022/08/07 05:53:09;;;;;;;0.10;0.10;;;14.50;99.90;;;;;;5073443;28;20116;-80
2022/08/07 05:55:36;;;;;;;0.20;0.20;;;14.60;99.90;;;;;;5055704;28;20056;-80
2022/08/07 05:58:04;;;;;;;0.20;0.20;;;14.60;99.90;;;;;;5064860;28;20373;-80
2022/08/07 06:00:35;;;;;;;0.20;0.20;;;14.70;99.90;;;;;;5068927;28;20095;-80
2022/08/07 06:03:04;;;;;;;0.30;0.30;;;14.70;99.90;;;;;;5073128;28;20169;-80
2022/08/07 06:05:33;;;;;;;0.20;0.20;;;14.80;99.90;;;;;;5055214;28;20075;-80
2022/08/07 06:07:59;;;;;;;0.20;0.20;;;14.90;99.90;;;;;;5060746;28;20040;-80
2022/08/07 06:10:26;;;;;;;0.10;0.10;;;15.00;99.90;;;;;;5069980;28;20086;-79
2022/08/07 06:12:52;;;;;;;0.20;0.20;;;15.20;99.90;;;;;;5066502;28;20040;-80
2022/08/07 06:15:19;;;;;;;0.10;0.10;;;15.10;99.90;;;;;;5064380;28;20043;-80
2022/08/07 06:17:45;;;;;;;0.10;0.10;;;15.20;99.90;;;;;;5076567;28;20102;-80
2022/08/07 06:20:12;;;;;;;0.20;0.20;;;15.30;99.90;;;;;;5059377;28;20054;-80
2022/08/07 06:22:41;;;;;;;0.10;0.10;;;15.30;99.90;;;;;;5059296;28;20492;-80
2022/08/07 06:25:07;;;;;;;0.13;0.13;;;15.40;99.90;;;;;;5066344;28;20052;-80
2022/08/07 06:27:35;;;;;;;0.10;0.10;;;15.50;99.90;;;;;;5060177;28;20048;-80
2022/08/07 06:30:01;;;;;;;0.13;0.13;;;15.50;99.90;;;;;;5064706;28;20036;-80
2022/08/07 06:32:26;;;;;;;0.20;0.20;;;15.60;99.90;;;;;;5071540;28;20048;-83
2022/08/07 06:34:52;;;;;;;0.10;0.10;;;15.70;99.90;;;;;;5064679;28;20123;-80
2022/08/07 06:37:17;;;;;;;0.20;0.20;;;15.70;99.90;;;;;;5062397;28;20055;-80
2022/08/07 06:39:43;;;;;;;0.20;0.20;;;15.90;99.90;;;;;;5074441;28;20040;-80
2022/08/07 06:42:16;;;;;;;0.20;0.20;;;15.90;99.90;;;;;;5073397;28;20032;-81
2022/08/07 06:44:45;;;;;;;0.20;0.20;;;15.90;99.90;;;;;;5057721;28;20029;-80
2022/08/07 06:47:10;;;;;;;0.20;0.20;;;16.00;99.90;;;;;;5066026;28;20526;-79
2022/08/07 06:49:36;;;;;;;0.10;0.10;;;16.00;99.90;;;;;;5064668;28;20049;-81
2022/08/07 06:52:03;;;;;;;0.20;0.20;;;16.10;99.90;;;;;;5070723;28;20045;-81
2022/08/07 06:54:30;;;;;;;0.17;0.17;;;16.10;99.90;;;;;;5051033;28;20050;-80
2022/08/07 06:56:58;;;;;;;0.20;0.20;;;16.20;99.90;;;;;;5063589;28;20051;-81
2022/08/07 06:59:40;;;;;;;0.10;0.10;;;16.30;99.90;;;;;;5071693;28;20079;-80
2022/08/07 07:02:13;;;;;;;0.20;0.20;;;16.30;99.90;;;;;;5074195;28;20085;-80
2022/08/07 07:04:39;;;;;;;0.20;0.20;;;16.40;99.90;;;;;;5070265;28;20044;-80
2022/08/07 07:07:07;;;;;;;0.15;0.15;;;16.40;99.90;;;;;;5073187;28;20040;-80
2022/08/07 07:09:33;;;;;;;0.20;0.20;;;16.50;99.90;;;;;;5088588;28;20078;-80
2022/08/07 07:11:58;;;;;;;0.20;0.20;;;16.50;99.90;;;;;;5060268;28;20078;-80
2022/08/07 07:14:26;;;;;;;0.20;0.20;;;16.60;99.90;;;;;;5086343;28;20093;-81
2022/08/07 07:16:57;;;;;;;0.20;0.20;;;16.60;99.90;;;;;;5077449;28;20040;-81
2022/08/07 07:19:32;;;;;;;0.20;0.20;;;16.70;99.90;;;;;;5063799;28;20055;-80
2022/08/07 07:21:59;;;;;;;0.15;0.15;;;16.70;99.90;;;;;;5066372;28;20047;-80
2022/08/07 07:24:25;;;;;;;0.10;0.10;;;16.90;99.90;;;;;;5087086;28;20468;-80
2022/08/07 07:26:52;;;;;;;0.10;0.10;;;16.80;99.90;;;;;;5067728;28;20048;-78
2022/08/07 07:29:23;;;;;;;0.20;0.20;;;16.90;99.90;;;;;;5074150;28;20052;-80
2022/08/07 07:31:54;;;;;;;0.20;0.20;;;16.90;99.90;;;;;;5057473;28;20057;-81
2022/08/07 07:34:26;;;;;;;0.10;0.10;;;17.00;99.90;;;;;;5067169;28;20317;-81
2022/08/07 07:36:53;;;;;;;0.20;0.20;;;17.00;99.90;;;;;;5063306;28;20120;-81
2022/08/07 07:39:22;;;;;;;0.20;0.20;;;17.10;99.90;;;;;;5078337;28;20086;-81
2022/08/07 07:41:49;;;;;;;0.20;0.20;;;17.20;99.90;;;;;;5067144;28;20434;-81
2022/08/07 07:44:18;;;;;;;0.20;0.20;;;17.10;99.90;;;;;;5075944;28;20072;-80
2022/08/07 07:46:45;;;;;;;0.20;0.20;;;17.30;99.90;;;;;;5065738;28;20123;-80
2022/08/07 07:49:15;;;;;;;0.20;0.20;;;17.30;99.90;;;;;;5064749;28;20175;-83
2022/08/07 07:51:43;;;;;;;0.10;0.10;;;17.20;99.90;;;;;;5054738;28;20045;-82
2022/08/07 07:54:10;;;;;;;0.20;0.20;;;17.40;99.90;;;;;;5067017;28;20052;-82
2022/08/07 07:56:38;;;;;;;0.10;0.10;;;17.30;99.90;;;;;;5076870;28;20531;-83
2022/08/07 07:59:04;;;;;;;0.10;0.10;;;17.40;99.90;;;;;;5062086;28;20136;-82
2022/08/07 08:01:31;;;;;;;0.20;0.20;;;17.40;99.90;;;;;;5072425;28;20098;-83
2022/08/07 08:04:02;;;;;;;0.20;0.20;;;17.50;99.90;;;;;;5070736;28;20116;-84
2022/08/07 08:06:29;;;;;;;0.20;0.20;;;17.50;99.90;;;;;;5053457;28;20044;-82
2022/08/07 08:08:56;;;;;;;0.20;0.20;;;17.50;99.90;;;;;;5057582;28;20048;-81
2022/08/07 08:11:22;;;;;;;0.20;0.20;;;17.60;99.90;;;;;;5054270;28;20163;-83
2022/08/07 08:13:48;;;;;;;0.20;0.20;;;17.70;99.90;;;;;;5072020;28;20613;-82
2022/08/07 08:16:19;;;;;;;0.10;0.10;;;17.70;99.90;;;;;;5053842;28;20524;-82
2022/08/07 08:18:47;;;;;;;0.20;0.20;;;17.80;99.90;;;;;;5052018;28;20397;-82
2022/08/07 08:27:04;;;;;;;0.20;0.20;;;17.90;99.90;;;;;;5067762;28;20051;-83
2022/08/07 08:29:39;;;;;;;0.10;0.10;;;18.00;99.90;;;;;;5053806;28;20528;-82
2022/08/07 08:32:08;;;;;;;0.10;0.10;;;18.00;99.90;;;;;;5058371;28;20049;-83
2022/08/07 08:34:37;;;;;;;0.17;0.17;;;18.00;99.90;;;;;;5065783;28;20044;-82
2022/08/07 08:37:05;;;;;;;0.10;0.10;;;18.10;99.90;;;;;;5055609;28;20178;-83
2022/08/07 08:39:32;;;;;;;0.20;0.20;;;18.20;99.90;;;;;;5050624;28;20037;-82
2022/08/07 08:42:06;;;;;;;0.20;0.20;;;18.20;99.90;;;;;;5063522;28;20036;-82
2022/08/07 08:44:38;;;;;;;0.20;0.20;;;18.30;99.90;;;;;;5087086;28;20052;-82
2022/08/07 08:47:21;;;;;;;0.10;0.10;;;18.30;99.90;;;;;;5065791;28;20060;-83
2022/08/07 08:50:02;;;;;;;0.13;0.13;;;18.40;99.90;;;;;;5067560;28;20047;-86
2022/08/07 08:52:33;;;;;;;0.20;0.20;;;18.40;99.90;;;;;;5072412;28;20045;-83
2022/08/07 08:55:08;;;;;;;0.10;0.10;;;18.40;99.90;;;;;;5067721;28;20033;-83
2022/08/07 08:57:43;;;;;;;0.20;0.20;;;18.50;99.90;;;;;;5065579;28;20043;-85
2022/08/07 09:00:10;;;;;;;0.20;0.20;;;18.50;99.90;;;;;;5050095;28;20489;-85
2022/08/07 09:02:49;;;;;;;0.10;0.10;;;18.60;99.90;;;;;;5051494;28;20100;-86
2022/08/07 09:05:33;;;;;;;0.10;0.10;;;18.60;99.90;;;;;;5075284;28;20053;-84
2022/08/07 09:08:26;;;;;;;0.20;0.20;;;18.60;99.80;;;;;;5080148;28;20064;-85
2022/08/07 09:11:10;;;;;;;0.10;0.10;;;18.70;99.50;;;;;;5074896;28;20064;-85
2022/08/07 09:13:54;;;;;;;0.10;0.10;;;18.70;99.10;;;;;;5055079;28;20471;-85
2022/08/07 09:16:43;;;;;;;0.20;0.20;;;18.80;99.10;;;;;;5092141;28;20044;-87
2022/08/07 09:19:41;;;;;;;0.10;0.10;;;18.90;99.00;;;;;;5052092;28;20127;-86
2022/08/07 09:22:32;;;;;;;0.20;0.20;;;18.90;99.00;;;;;;5051585;28;20051;-87
2022/08/07 09:25:14;;;;;;;0.25;0.25;;;19.00;98.60;;;;;;5050155;28;20045;-87
2022/08/07 09:27:42;;;;;;;0.20;0.20;;;19.10;98.70;;;;;;5067568;28;20392;-86
2022/08/07 09:30:10;;;;;;;0.10;0.10;;;19.20;98.70;;;;;;5069884;28;20064;-84
2022/08/07 09:33:25;;;;;;;0.20;0.20;;;19.30;98.10;;;;;;5066831;28;20485;-84
2022/08/07 09:35:59;;;;;;;0.10;0.10;;;19.40;97.50;;;;;;5032727;28;20057;-86
2022/08/07 09:38:29;;;;;;;0.20;0.20;;;19.50;97.40;;;;;;5083884;28;20102;-83
2022/08/07 09:41:14;;;;;;;0.20;0.20;;;19.50;97.50;;;;;;5050877;28;20048;-86
2022/08/07 09:43:55;;;;;;;0.20;0.20;;;19.60;97.30;;;;;;5063461;28;20122;-84
2022/08/07 09:46:58;;;;;;;0.20;0.20;;;19.80;96.50;;;;;;5072134;28;20028;-86
2022/08/07 09:49:42;;;;;;;0.20;0.20;;;19.80;96.80;;;;;;5055569;28;20126;-85
2022/08/07 09:52:35;;;;;;;0.20;0.20;;;19.90;96.70;;;;;;5066843;28;20485;-87
2022/08/07 09:55:33;;;;;;;0.30;0.30;;;19.90;96.90;;;;;;5060108;28;20040;-85
2022/08/07 09:58:08;;;;;;;0.20;0.20;;;19.90;97.10;;;;;;5059435;28;20075;-85
2022/08/07 10:01:08;;;;;;;0.20;0.20;;;20.00;96.80;;;;;;5070831;28;20045;-84
2022/08/07 10:04:07;;;;;;;0.10;0.10;;;20.00;96.90;;;;;;5078355;28;20052;-86
2022/08/07 10:06:52;;;;;;;0.20;0.20;;;20.10;95.60;;;;;;5068198;28;20044;-84
2022/08/07 10:09:53;;;;;;;0.20;0.20;;;20.10;95.60;;;;;;5068921;28;20141;-84
2022/08/07 10:12:24;;;;;;;0.20;0.20;;;20.10;95.60;;;;;;5043759;28;20049;-82
2022/08/07 10:15:16;;;;;;;0.20;0.20;;;20.20;95.20;;;;;;5052401;28;20072;-85
2022/08/07 10:18:21;;;;;;;0.20;0.20;;;20.20;95.20;;;;;;5086114;28;20601;-86
2022/08/07 10:21:01;;;;;;;0.20;0.20;;;20.20;95.50;;;;;;5053164;28;20053;-86
2022/08/07 10:23:38;;;;;;;0.20;0.20;;;20.30;95.20;;;;;;5074194;28;20044;-86
2022/08/07 10:26:29;;;;;;;0.20;0.20;;;20.40;95.20;;;;;;5054930;28;20039;-87
2022/08/07 10:29:31;;;;;;;0.20;0.20;;;20.50;95.10;;;;;;5060210;28;20048;-86
2022/08/07 10:32:17;;;;;;;0.20;0.20;;;20.50;94.80;;;;;;5066703;28;20052;-87
2022/08/07 10:35:20;;;;;;;0.20;0.20;;;20.60;94.80;;;;;;5055154;28;20250;-87
2022/08/07 10:38:23;;;;;;;0.20;0.20;;;20.70;94.60;;;;;;5053728;28;20797;-88
2022/08/07 10:41:08;;;;;;;0.20;0.20;;;20.70;94.40;;;;;;5062721;28;20132;-86
2022/08/07 10:43:42;;;;;;;0.10;0.10;;;20.60;93.80;;;;;;5062639;28;20121;-87
2022/08/07 10:46:18;;;;;;;0.20;0.20;;;20.60;93.60;;;;;;5070388;28;20451;-87
2022/08/07 10:49:12;;;;;;;0.20;0.20;;;20.60;93.70;;;;;;5065319;28;20610;-85
2022/08/07 10:51:44;;;;;;;0.20;0.20;;;20.60;93.10;;;;;;5048560;28;20511;-87
2022/08/07 10:54:39;;;;;;;0.20;0.20;;;20.70;92.70;;;;;;5049867;28;20074;-87
2022/08/07 10:57:21;;;;;;;0.10;0.10;;;20.70;92.70;;;;;;5050826;28;20060;-87
2022/08/07 11:00:06;;;;;;;0.20;0.20;;;20.70;92.50;;;;;;5049634;28;20437;-85
2022/08/07 11:02:45;;;;;;;0.20;0.20;;;20.70;92.40;;;;;;5050276;28;20127;-87
2022/08/07 11:05:16;;;;;;;0.20;0.20;;;20.70;92.70;;;;;;5059445;28;20052;-86
2022/08/07 11:08:15;;;;;;;0.20;0.20;;;20.70;92.50;;;;;;5051337;28;20492;-86
2022/08/07 11:11:05;;;;;;;0.20;0.20;;;20.80;92.30;;;;;;5060101;28;20508;-87
2022/08/07 11:13:51;;;;;;;0.20;0.20;;;20.90;92.30;;;;;;5070742;28;20051;-86
2022/08/07 11:16:27;;;;;;;0.10;0.10;;;20.90;91.90;;;;;;5074143;28;20423;-85
2022/08/07 11:19:04;;;;;;;0.20;0.20;;;21.10;91.80;;;;;;5069468;28;20199;-86
2022/08/07 11:21:43;;;;;;;0.20;0.20;;;21.10;91.60;;;;;;5067576;28;20512;-84
2022/08/07 11:24:14;;;;;;;0.20;0.20;;;21.20;90.90;;;;;;5059792;28;20045;-83
2022/08/07 11:26:52;;;;;;;0.10;0.10;;;21.10;90.60;;;;;;5066250;28;20083;-82
2022/08/07 11:29:22;;;;;;;0.10;0.10;;;21.10;90.80;;;;;;5048744;28;20042;-84
2022/08/07 11:31:59;;;;;;;0.20;0.20;;;21.00;91.00;;;;;;5049503;28;20056;-83
2022/08/07 11:34:46;;;;;;;0.20;0.20;;;20.90;90.30;;;;;;5049103;28;20052;-83
2022/08/07 11:37:51;;;;;;;0.20;0.20;;;21.00;91.20;;;;;;5054046;28;20060;-82
2022/08/07 11:40:35;;;;;;;0.20;0.20;;;21.10;90.00;;;;;;5051773;28;20057;-83
2022/08/07 11:43:22;;;;;;;0.10;0.10;;;21.20;90.30;;;;;;5053206;28;20056;-87
2022/08/07 11:46:19;;;;;;;0.20;0.20;;;21.30;90.90;;;;;;5053075;28;20045;-84
2022/08/07 11:49:15;;;;;;;0.20;0.20;;;21.40;91.10;;;;;;5051993;28;20059;-84
2022/08/07 11:52:06;;;;;;;0.10;0.10;;;21.60;91.20;;;;;;5052986;28;20048;-85
2022/08/07 11:55:04;;;;;;;0.20;0.20;;;21.70;87.90;;;;;;5053306;28;20125;-84
2022/08/07 11:58:08;;;;;;;0.10;0.10;;;21.80;88.90;;;;;;5032374;28;20500;-83
2022/08/07 12:00:49;;;;;;;0.13;0.13;;;21.90;88.20;;;;;;5055197;28;20037;-83
2022/08/07 12:03:47;;;;;;;0.10;0.10;;;22.00;88.80;;;;;;5063692;28;20049;-84
2022/08/07 12:06:55;;;;;;;0.20;0.20;;;22.20;89.60;;;;;;5062166;28;20093;-83
2022/08/07 12:09:48;;;;;;;0.20;0.20;;;22.20;89.90;;;;;;5032765;28;20102;-83
2022/08/07 12:12:24;;;;;;;0.20;0.20;;;22.40;90.10;;;;;;5034000;28;20049;-83
2022/08/07 12:15:03;;;;;;;0.20;0.20;;;22.20;90.20;;;;;;5087081;28;20052;-83
2022/08/07 12:17:41;;;;;;;0.20;0.20;;;22.30;89.80;;;;;;5077221;28;20119;-83
2022/08/07 12:20:10;;;;;;;0.20;0.20;;;22.40;89.90;;;;;;5069064;28;20072;-84
2022/08/07 12:23:15;;;;;;;0.20;0.20;;;22.50;89.10;;;;;;5053437;28;20397;-84
2022/08/07 12:25:55;;;;;;;0.20;0.20;;;22.50;89.20;;;;;;5066836;28;20063;-83
2022/08/07 12:28:43;;;;;;;0.20;0.20;;;22.40;89.40;;;;;;5071134;28;20036;-83
2022/08/07 12:31:33;;;;;;;0.20;0.20;;;22.30;89.60;;;;;;5071125;28;20075;-83
2022/08/07 12:34:00;;;;;;;0.20;0.20;;;22.40;90.00;;;;;;5073744;28;20105;-85
2022/08/07 12:36:27;;;;;;;0.20;0.20;;;22.50;90.10;;;;;;5055909;28;20053;-85
2022/08/07 12:38:55;;;;;;;0.20;0.20;;;22.70;90.10;;;;;;5051972;28;20048;-84
2022/08/07 12:41:24;;;;;;;0.20;0.20;;;22.80;88.20;;;;;;5057500;28;20044;-84
2022/08/07 12:43:54;;;;;;;0.20;0.20;;;22.70;87.70;;;;;;5072380;28;20361;-86
2022/08/07 12:46:45;;;;;;;0.30;0.30;;;22.70;86.60;;;;;;5055931;28;20045;-85
2022/08/07 12:49:37;;;;;;;0.20;0.20;;;22.60;88.10;;;;;;5056331;28;20056;-85
2022/08/07 12:52:14;;;;;;;0.10;0.10;;;22.50;89.40;;;;;;5057702;28;20045;-84
2022/08/07 12:54:42;;;;;;;0.20;0.20;;;22.60;90.00;;;;;;5064281;28;20082;-85
2022/08/07 12:57:10;;;;;;;0.17;0.17;;;22.60;90.10;;;;;;5057091;28;20037;-83
2022/08/07 12:59:37;;;;;;;0.20;0.20;;;22.50;90.20;;;;;;5060792;28;20052;-86
2022/08/07 13:02:27;;;;;;;0.20;0.20;;;22.50;90.10;;;;;;5072237;28;20068;-90
2022/08/07 13:05:04;;;;;;;0.20;0.20;;;22.40;89.90;;;;;;5058692;28;20053;-87
2022/08/07 13:08:11;;;;;;;0.20;0.20;;;22.30;90.00;;;;;;5068838;28;20135;-87
2022/08/07 13:11:12;;;;;;;0.20;0.20;;;22.20;90.10;;;;;;5070133;28;20040;-88
2022/08/07 13:13:58;;;;;;;0.20;0.20;;;22.20;90.50;;;;;;5071521;28;20040;-84
2022/08/07 13:16:48;;;;;;;0.20;0.20;;;22.10;90.70;;;;;;5073048;28;20139;-85
2022/08/07 13:19:51;;;;;;;0.20;0.20;;;22.10;90.80;;;;;;5073367;28;20044;-89
2022/08/07 13:22:30;;;;;;;0.20;0.20;;;22.10;90.80;;;;;;5053131;28;20730;-87
2022/08/07 13:24:59;;;;;;;0.20;0.20;;;22.10;90.70;;;;;;5078879;28;20117;-85
2022/08/07 13:27:30;;;;;;;0.20;0.20;;;22.10;90.80;;;;;;5073522;28;20077;-86